createdAt,value
2022-12-08T00:01:22.779Z,13.40
2022-12-08T00:03:50.483Z,14.13
2022-12-08T00:06:38.741Z,13.60
2022-12-08T00:09:24.082Z,13.82
2022-12-08T00:11:57.231Z,13.90
2022-12-08T00:14:36.597Z,14.40
2022-12-08T00:17:04.575Z,14.13
2022-12-08T00:19:32.267Z,14.25
2022-12-08T00:21:59.932Z,14.50
2022-12-08T00:24:31.817Z,13.73
2022-12-08T00:26:58.661Z,13.25
2022-12-08T00:29:25.612Z,14.52
2022-12-08T00:31:52.806Z,14.57
2022-12-08T00:34:20.149Z,14.82
2022-12-08T00:36:47.577Z,14.05
2022-12-08T00:39:16.464Z,14.52
2022-12-08T00:42:02.394Z,15.25
2022-12-08T00:44:29.375Z,15.18
2022-12-08T00:46:56.535Z,14.25
2022-12-08T00:49:24.052Z,14.85
2022-12-08T00:51:50.926Z,14.82
2022-12-08T00:54:18.405Z,14.80
2022-12-08T00:56:46.212Z,15.27
2022-12-08T00:59:14.415Z,14.98
2022-12-08T01:01:41.640Z,14.18
2022-12-08T01:04:12.049Z,15.00
2022-12-08T01:06:39.721Z,14.25
2022-12-08T01:09:08.077Z,14.68
2022-12-08T01:11:36.214Z,14.45
2022-12-08T01:14:03.738Z,14.40
2022-12-08T01:16:33.743Z,14.45
2022-12-08T01:19:01.847Z,15.95
2022-12-08T01:21:29.150Z,15.18
2022-12-08T01:23:56.233Z,15.50
2022-12-08T01:26:23.095Z,14.93
2022-12-08T01:28:50.313Z,15.07
2022-12-08T01:31:19.899Z,15.13
2022-12-08T01:33:47.943Z,15.55
2022-12-08T01:36:29.281Z,16.02
2022-12-08T01:39:01.562Z,15.90
2022-12-08T01:41:31.120Z,15.95
2022-12-08T01:44:08.183Z,15.50
2022-12-08T01:46:40.293Z,15.00
2022-12-08T01:51:56.932Z,14.68
2022-12-08T01:54:28.234Z,14.85
2022-12-08T01:57:09.285Z,13.68
2022-12-08T01:59:41.676Z,14.13
2022-12-08T02:02:10.632Z,16.45
2022-12-08T02:04:37.812Z,15.88
2022-12-08T02:07:08.281Z,15.38
2022-12-08T02:09:36.902Z,14.55
2022-12-08T02:12:04.330Z,14.20
2022-12-08T02:14:31.759Z,14.63
2022-12-08T02:17:19.556Z,14.32
2022-12-08T02:19:52.062Z,14.02
2022-12-08T02:22:42.168Z,14.32
2022-12-08T02:25:22.537Z,13.68
2022-12-08T02:28:21.284Z,13.65
2022-12-08T02:31:05.776Z,13.68
2022-12-08T02:33:54.585Z,13.45
2022-12-08T02:36:32.683Z,13.50
2022-12-08T02:39:10.724Z,14.07
2022-12-08T02:41:46.602Z,13.95
2022-12-08T02:44:35.200Z,13.80
2022-12-08T02:47:32.322Z,13.95
2022-12-08T02:49:59.532Z,14.05
2022-12-08T02:52:26.395Z,14.93
2022-12-08T02:55:01.938Z,14.27
2022-12-08T02:58:06.089Z,14.50
2022-12-08T03:00:48.623Z,14.32
2022-12-08T03:03:24.500Z,13.38
2022-12-08T03:06:00.284Z,14.25
2022-12-08T03:08:46.205Z,13.82
2022-12-08T03:11:22.163Z,14.25
2022-12-08T03:13:56.278Z,14.60
2022-12-08T03:16:26.644Z,15.52
2022-12-08T03:19:18.112Z,14.52
2022-12-08T03:21:50.214Z,14.00
2022-12-08T03:24:19.500Z,13.07
2022-12-08T03:26:52.015Z,13.88
2022-12-08T03:29:19.290Z,13.23
2022-12-08T03:31:56.250Z,13.15
2022-12-08T03:34:26.375Z,12.75
2022-12-08T03:36:53.765Z,12.48
2022-12-08T03:39:20.572Z,12.93
2022-12-08T03:41:47.792Z,12.68
2022-12-08T03:44:14.696Z,12.60
2022-12-08T03:46:41.551Z,13.70
2022-12-08T03:49:08.400Z,13.05
2022-12-08T03:51:35.292Z,13.85
2022-12-08T03:54:02.142Z,13.27
2022-12-08T03:56:32.219Z,13.90
2022-12-08T03:58:59.829Z,14.60
2022-12-08T04:01:27.503Z,14.40
2022-12-08T04:03:54.529Z,14.43
2022-12-08T04:06:21.921Z,13.38
2022-12-08T04:08:50.495Z,12.00
2022-12-08T04:11:18.123Z,13.52
2022-12-08T04:13:45.829Z,13.90
2022-12-08T04:16:17.869Z,13.05
2022-12-08T04:18:44.902Z,13.18
2022-12-08T04:21:12.188Z,12.73
2022-12-08T04:23:39.036Z,12.55
2022-12-08T04:26:06.613Z,13.77
2022-12-08T04:28:33.572Z,13.02
2022-12-08T04:31:00.804Z,12.48
2022-12-08T04:33:27.976Z,13.45
2022-12-08T04:35:55.062Z,15.18
2022-12-08T04:38:22.046Z,14.80
2022-12-08T04:40:48.876Z,14.00
2022-12-08T04:43:16.955Z,13.82
2022-12-08T04:45:43.824Z,13.35
2022-12-08T04:48:13.248Z,13.23
2022-12-08T04:50:44.441Z,13.93
2022-12-08T04:53:12.350Z,13.43
2022-12-08T04:55:42.075Z,13.43
2022-12-08T04:58:12.794Z,13.57
2022-12-08T05:00:40.610Z,13.13
2022-12-08T05:03:07.492Z,13.63
2022-12-08T05:05:34.310Z,13.07
2022-12-08T05:08:01.193Z,12.50
2022-12-08T05:10:28.135Z,13.40
2022-12-08T05:12:54.994Z,12.98
2022-12-08T05:15:21.977Z,13.48
2022-12-08T05:17:48.820Z,12.63
2022-12-08T05:20:15.697Z,12.73
2022-12-08T05:22:43.076Z,12.88
2022-12-08T05:25:10.057Z,13.45
2022-12-08T05:27:37.221Z,13.30
2022-12-08T05:30:04.665Z,13.20
2022-12-08T05:32:31.740Z,14.48
2022-12-08T05:34:58.568Z,13.15
2022-12-08T05:37:25.375Z,13.13
2022-12-08T05:39:52.196Z,13.02
2022-12-08T05:42:24.459Z,12.70
2022-12-08T05:44:51.863Z,13.48
2022-12-08T05:47:18.774Z,14.60
2022-12-08T05:49:45.584Z,13.40
2022-12-08T05:52:12.434Z,13.25
2022-12-08T05:54:39.436Z,12.70
2022-12-08T05:57:06.371Z,13.68
2022-12-08T05:59:33.347Z,13.05
2022-12-08T06:02:00.305Z,17.35
2022-12-08T06:04:27.358Z,12.93
2022-12-08T06:06:54.273Z,13.85
2022-12-08T06:09:21.274Z,12.75
2022-12-08T06:11:48.189Z,17.30
2022-12-08T06:14:15.046Z,16.77
2022-12-08T06:16:42.058Z,17.15
2022-12-08T06:19:09.072Z,16.17
2022-12-08T06:21:35.883Z,15.05
2022-12-08T06:24:02.764Z,14.82
2022-12-08T06:26:29.622Z,14.70
2022-12-08T06:28:56.566Z,15.20
2022-12-08T06:31:25.818Z,18.70
2022-12-08T06:33:54.443Z,16.70
2022-12-08T06:36:23.531Z,13.60
2022-12-08T06:38:50.440Z,13.32
2022-12-08T06:41:18.117Z,13.60
2022-12-08T06:43:45.386Z,13.45
2022-12-08T06:46:16.097Z,14.18
2022-12-08T06:48:43.232Z,14.25
2022-12-08T06:51:15.891Z,14.80
2022-12-08T06:53:43.789Z,12.73
2022-12-08T06:56:12.379Z,13.43
2022-12-08T06:58:39.251Z,13.25
2022-12-08T07:01:08.501Z,12.95
2022-12-08T07:03:36.454Z,13.13
2022-12-08T07:06:04.332Z,14.93
2022-12-08T07:08:32.534Z,14.15
2022-12-08T07:10:59.527Z,14.02
2022-12-08T07:13:26.373Z,14.20
2022-12-08T07:15:53.234Z,14.30
2022-12-08T07:18:20.109Z,14.57
2022-12-08T07:20:46.972Z,14.45
2022-12-08T07:23:13.929Z,14.98
2022-12-08T07:25:40.854Z,14.95
2022-12-08T07:28:09.772Z,14.43
2022-12-08T07:30:36.914Z,14.60
2022-12-08T07:33:05.717Z,15.10
2022-12-08T07:35:34.806Z,15.02
2022-12-08T07:38:02.311Z,16.13
2022-12-08T07:40:29.313Z,15.18
2022-12-08T07:42:56.167Z,14.75
2022-12-08T07:45:26.899Z,16.02
2022-12-08T07:47:58.287Z,13.50
2022-12-08T07:50:25.113Z,15.70
2022-12-08T07:52:51.984Z,14.35
2022-12-08T07:55:18.836Z,13.20
2022-12-08T07:57:45.654Z,13.02
2022-12-08T08:00:13.191Z,13.18
2022-12-08T08:02:40.281Z,12.63
2022-12-08T08:05:07.922Z,13.35
2022-12-08T08:07:36.878Z,13.70
2022-12-08T08:10:04.642Z,12.32
2022-12-08T08:12:32.660Z,13.43
2022-12-08T08:15:04.436Z,12.50
2022-12-08T08:17:31.544Z,13.40
2022-12-08T08:19:58.463Z,14.50
2022-12-08T08:22:26.399Z,13.18
2022-12-08T08:24:54.360Z,12.90
2022-12-08T08:27:21.459Z,13.02
2022-12-08T08:29:48.250Z,12.57
2022-12-08T08:32:15.078Z,14.38
2022-12-08T08:34:41.887Z,15.05
2022-12-08T08:37:08.800Z,16.35
2022-12-08T08:39:35.771Z,14.18
2022-12-08T08:42:02.643Z,14.45
2022-12-08T08:44:29.515Z,15.63
2022-12-08T08:46:56.414Z,26.10
2022-12-08T08:49:23.332Z,18.95
2022-12-08T08:51:50.404Z,15.20
2022-12-08T08:54:17.240Z,14.65
2022-12-08T08:56:44.112Z,14.10
2022-12-08T08:59:11.222Z,15.05
2022-12-08T09:01:38.087Z,14.18
2022-12-08T09:04:05.051Z,66.10
2022-12-08T09:06:32.181Z,22.25
2022-12-08T09:08:59.328Z,15.70
2022-12-08T09:11:26.378Z,15.18
2022-12-08T09:13:54.877Z,15.25
2022-12-08T09:16:22.240Z,13.98
2022-12-08T09:18:49.741Z,13.82
2022-12-08T09:21:25.936Z,11.95
2022-12-08T09:23:58.168Z,11.85
2022-12-08T09:26:27.183Z,11.68
2022-12-08T09:28:55.389Z,12.35
2022-12-08T09:31:23.513Z,11.18
2022-12-08T09:33:54.444Z,11.23
2022-12-08T09:36:21.830Z,11.50
2022-12-08T09:38:50.408Z,11.77
2022-12-08T09:41:36.487Z,11.32
2022-12-08T09:44:21.785Z,10.57
2022-12-08T09:46:52.481Z,11.15
2022-12-08T09:49:24.851Z,12.10
2022-12-08T09:51:51.633Z,11.00
2022-12-08T09:54:25.735Z,13.20
2022-12-08T09:56:58.716Z,12.05
2022-12-08T09:59:34.697Z,11.30
2022-12-08T10:02:02.953Z,13.18
2022-12-08T10:04:34.004Z,10.98
2022-12-08T10:07:13.283Z,11.70
2022-12-08T10:09:56.341Z,11.63
2022-12-08T10:12:47.742Z,11.88
2022-12-08T10:15:41.929Z,11.77
2022-12-08T10:18:25.681Z,11.65
2022-12-08T10:20:52.806Z,12.57
2022-12-08T10:23:39.284Z,14.10
2022-12-08T10:26:13.135Z,12.82
2022-12-08T10:28:44.800Z,11.70
2022-12-08T10:31:21.731Z,11.48
2022-12-08T10:33:59.793Z,12.00
2022-12-08T10:36:54.447Z,10.82
2022-12-08T10:39:46.003Z,12.65
2022-12-08T10:42:15.918Z,9.65
2022-12-08T10:45:00.577Z,10.82
2022-12-08T10:47:29.780Z,9.95
2022-12-08T10:50:20.797Z,9.88
2022-12-08T10:52:59.853Z,10.00
2022-12-08T10:55:27.096Z,10.88
2022-12-08T10:57:54.065Z,10.95
2022-12-08T11:00:24.698Z,10.50
2022-12-08T11:03:03.506Z,10.10
2022-12-08T11:05:36.433Z,10.25
2022-12-08T11:08:05.305Z,9.80
2022-12-08T11:10:38.509Z,9.23
2022-12-08T11:13:13.260Z,9.32
2022-12-08T11:15:41.558Z,9.80
2022-12-08T11:18:20.982Z,10.20
2022-12-08T11:20:47.834Z,10.23
2022-12-08T11:23:24.218Z,11.15
2022-12-08T11:25:55.114Z,9.27
2022-12-08T11:28:24.464Z,9.05
2022-12-08T11:30:58.105Z,9.88
2022-12-08T11:33:27.917Z,9.60
2022-12-08T11:36:00.665Z,10.20
2022-12-08T11:38:29.390Z,9.00
2022-12-08T11:41:06.677Z,9.57
2022-12-08T11:43:35.327Z,11.20
2022-12-08T11:46:17.885Z,9.88
2022-12-08T11:48:52.308Z,11.05
2022-12-08T11:51:28.751Z,10.13
2022-12-08T11:54:11.697Z,9.75
2022-12-08T11:56:42.991Z,10.18
2022-12-08T11:59:38.520Z,9.68
2022-12-08T12:02:12.128Z,10.65
2022-12-08T12:04:54.510Z,10.90
2022-12-08T12:07:37.635Z,10.40
2022-12-08T12:10:28.983Z,10.88
2022-12-08T12:13:16.854Z,11.30
2022-12-08T12:16:13.674Z,10.13
2022-12-08T12:18:47.555Z,12.15
2022-12-08T12:21:32.376Z,11.55
2022-12-08T12:24:06.781Z,12.10
2022-12-08T12:26:38.005Z,12.77
2022-12-08T12:29:19.244Z,10.85
2022-12-08T12:31:53.452Z,11.55
2022-12-08T12:34:25.020Z,10.63
2022-12-08T12:36:58.727Z,9.95
2022-12-08T12:39:29.610Z,9.88
2022-12-08T12:42:05.001Z,10.85
2022-12-08T12:44:34.660Z,10.48
2022-12-08T12:47:04.586Z,11.10
2022-12-08T12:49:40.765Z,11.63
2022-12-08T12:52:10.709Z,11.10
2022-12-08T12:54:43.276Z,12.18
2022-12-08T12:57:12.722Z,10.82
2022-12-08T12:59:55.258Z,10.40
2022-12-08T13:03:01.151Z,10.57
2022-12-08T13:05:35.612Z,10.82
2022-12-08T13:08:08.595Z,11.73
2022-12-08T13:10:39.034Z,11.63
2022-12-08T13:13:16.502Z,12.05
2022-12-08T13:15:46.431Z,12.25
2022-12-08T13:18:36.990Z,13.73
2022-12-08T13:21:08.517Z,11.10
2022-12-08T13:23:38.105Z,11.65
2022-12-08T13:26:20.016Z,11.15
2022-12-08T13:28:59.015Z,10.10
2022-12-08T13:31:50.627Z,9.48
2022-12-08T13:34:30.259Z,11.25
2022-12-08T13:37:12.185Z,10.52
2022-12-08T13:39:38.954Z,10.18
2022-12-08T13:42:29.584Z,11.38
2022-12-08T13:55:01.847Z,10.25
2022-12-08T13:57:11.304Z,10.38
2022-12-08T13:59:44.489Z,10.52
2022-12-08T14:02:30.140Z,10.50
2022-12-08T14:07:46.906Z,10.50
2022-12-08T14:10:19.176Z,11.27
2022-12-08T14:12:52.178Z,10.80
2022-12-08T14:15:20.042Z,11.00
2022-12-08T14:17:57.381Z,11.45
2022-12-08T14:20:29.764Z,11.60
2022-12-08T14:22:59.022Z,12.90
2022-12-08T14:25:27.544Z,12.77
2022-12-08T14:28:01.458Z,13.20
2022-12-08T14:30:30.723Z,12.75
2022-12-08T14:33:02.615Z,13.52
2022-12-08T14:35:35.099Z,12.82
2022-12-08T14:38:05.278Z,12.30
2022-12-08T14:40:35.812Z,13.75
2022-12-08T14:43:13.660Z,13.50
2022-12-08T14:45:40.527Z,13.52
2022-12-08T14:48:27.534Z,13.68
2022-12-08T14:51:03.738Z,14.45
2022-12-08T14:53:50.342Z,14.88
2022-12-08T14:56:42.309Z,14.95
2022-12-08T14:59:16.324Z,15.38
2022-12-08T15:01:44.069Z,17.33
2022-12-08T15:04:13.876Z,32.88
2022-12-08T15:06:53.679Z,23.42
2022-12-08T15:09:47.277Z,22.60
2022-12-08T15:12:14.076Z,23.38
2022-12-08T15:15:02.512Z,24.20
2022-12-08T15:17:44.250Z,22.98
2022-12-08T15:20:40.910Z,23.73
2022-12-08T15:23:32.579Z,21.45
2022-12-08T15:25:59.892Z,23.50
2022-12-08T15:28:30.328Z,20.55
2022-12-08T15:30:58.428Z,19.60
2022-12-08T15:33:25.811Z,19.88
2022-12-08T15:35:53.129Z,20.30
2022-12-08T15:38:29.562Z,23.27
2022-12-08T15:40:58.839Z,22.88
2022-12-08T15:43:26.249Z,23.05
2022-12-08T15:45:59.480Z,21.65
2022-12-08T15:48:29.084Z,24.25
2022-12-08T15:50:57.390Z,25.05
2022-12-08T15:53:24.435Z,24.83
2022-12-08T15:58:55.633Z,25.38
2022-12-08T16:01:23.879Z,23.10
2022-12-08T16:09:32.616Z,33.03
2022-12-08T16:12:18.435Z,31.20
2022-12-08T16:17:33.533Z,47.75
2022-12-08T16:20:01.202Z,39.25
2022-12-08T16:25:20.610Z,51.33
2022-12-08T16:28:12.405Z,43.70
2022-12-08T16:30:39.917Z,40.08
2022-12-08T16:33:07.018Z,41.28
2022-12-08T16:35:34.049Z,40.25
2022-12-08T16:38:01.272Z,39.92
2022-12-08T16:40:28.182Z,38.40
2022-12-08T16:42:55.153Z,35.35
2022-12-08T16:45:30.235Z,39.78
2022-12-08T16:47:59.350Z,41.65
2022-12-08T16:50:35.263Z,40.40
2022-12-08T16:53:05.867Z,45.97
2022-12-08T16:55:34.076Z,47.42
2022-12-08T16:58:02.752Z,50.58
2022-12-08T17:00:31.797Z,49.38
2022-12-08T17:02:59.076Z,52.72
2022-12-08T17:05:26.569Z,77.75
2022-12-08T17:07:54.167Z,90.80
2022-12-08T17:10:25.199Z,88.75
2022-12-08T17:12:52.333Z,71.20
2022-12-08T17:15:21.862Z,50.33
2022-12-08T17:17:49.307Z,48.50
2022-12-08T17:20:19.919Z,38.53
2022-12-08T17:22:47.291Z,45.08
2022-12-08T17:25:14.225Z,35.92
2022-12-08T17:27:41.849Z,30.60
2022-12-08T17:30:11.730Z,26.80
2022-12-08T17:32:38.789Z,23.35
2022-12-08T17:35:06.848Z,23.52
2022-12-08T17:37:34.322Z,24.02
2022-12-08T17:40:01.246Z,22.75
2022-12-08T17:42:28.179Z,24.50
2022-12-08T17:44:55.214Z,35.80
2022-12-08T17:47:22.452Z,36.88
2022-12-08T17:49:49.372Z,28.98
2022-12-08T17:52:16.215Z,23.73
2022-12-08T17:54:43.096Z,23.77
2022-12-08T17:57:09.938Z,18.88
2022-12-08T17:59:36.932Z,18.65
2022-12-08T18:02:04.518Z,18.60
2022-12-08T18:04:31.506Z,17.55
2022-12-08T18:07:00.787Z,19.30
2022-12-08T18:09:30.254Z,21.88
2022-12-08T18:11:57.109Z,19.30
2022-12-08T18:14:23.931Z,18.52
2022-12-08T18:16:50.882Z,17.95
2022-12-08T18:19:17.839Z,20.40
2022-12-08T18:21:44.726Z,19.92
2022-12-08T18:24:21.213Z,18.95
2022-12-08T18:26:49.545Z,16.88
2022-12-08T18:29:16.470Z,17.98
2022-12-08T18:31:43.581Z,16.77
2022-12-08T18:34:10.481Z,16.02
2022-12-08T18:36:37.437Z,16.63
2022-12-08T18:39:10.242Z,17.27
2022-12-08T18:41:37.829Z,15.52
2022-12-08T18:44:04.834Z,15.73
2022-12-08T18:46:31.795Z,14.65
2022-12-08T18:48:59.531Z,14.43
2022-12-08T18:51:26.617Z,15.32
2022-12-08T18:53:53.544Z,16.50
2022-12-08T18:56:26.911Z,15.00
2022-12-08T18:58:59.814Z,18.42
2022-12-08T19:01:28.971Z,16.65
2022-12-08T19:04:26.832Z,16.45
2022-12-08T19:06:44.390Z,15.98
2022-12-08T19:09:12.795Z,16.50
2022-12-08T19:11:40.279Z,15.68
2022-12-08T19:14:07.583Z,17.42
2022-12-08T19:16:35.030Z,14.18
2022-12-08T19:19:02.567Z,14.02
2022-12-08T19:21:30.210Z,13.10
2022-12-08T19:23:58.515Z,13.63
2022-12-08T19:26:27.246Z,15.07
2022-12-08T19:28:54.500Z,14.27
2022-12-08T19:31:21.476Z,13.25
2022-12-08T19:33:48.886Z,14.32
2022-12-08T19:36:19.113Z,13.10
2022-12-08T19:39:04.901Z,14.13
2022-12-08T19:41:51.067Z,14.25
2022-12-08T19:44:53.897Z,13.73
2022-12-08T19:47:26.286Z,13.82
2022-12-08T19:50:17.456Z,14.48
2022-12-08T19:52:45.346Z,15.02
2022-12-08T19:55:13.071Z,14.75
2022-12-08T19:57:40.143Z,14.35
2022-12-08T20:00:09.959Z,13.75
2022-12-08T20:02:37.533Z,14.32
2022-12-08T20:05:08.650Z,16.80
2022-12-08T20:07:35.834Z,18.25
2022-12-08T20:10:24.917Z,14.73
2022-12-08T20:12:51.816Z,15.05
2022-12-08T20:15:19.452Z,14.43
2022-12-08T20:17:46.416Z,14.73
2022-12-08T20:20:14.406Z,14.60
2022-12-08T20:22:41.727Z,14.57
2022-12-08T20:25:12.744Z,14.82
2022-12-08T20:27:40.398Z,16.02
2022-12-08T20:30:13.334Z,15.27
2022-12-08T20:32:44.144Z,15.32
2022-12-08T20:35:11.168Z,15.88
2022-12-08T20:37:38.314Z,16.80
2022-12-08T20:40:06.282Z,16.98
2022-12-08T20:42:33.190Z,17.00
2022-12-08T20:45:00.035Z,15.23
2022-12-08T20:47:27.143Z,14.52
2022-12-08T20:49:54.212Z,14.07
2022-12-08T20:52:21.119Z,13.65
2022-12-08T20:54:48.045Z,14.32
2022-12-08T20:57:14.929Z,14.10
2022-12-08T20:59:42.093Z,14.18
2022-12-08T21:02:10.798Z,13.35
2022-12-08T21:04:38.015Z,13.60
2022-12-08T21:07:05.175Z,12.93
2022-12-08T21:09:32.180Z,15.75
2022-12-08T21:11:59.210Z,13.77
2022-12-08T21:14:26.200Z,14.63
2022-12-08T21:16:54.586Z,13.85
2022-12-08T21:19:22.442Z,15.98
2022-12-08T21:21:50.865Z,15.05
2022-12-08T21:24:19.021Z,14.90
2022-12-08T21:26:46.223Z,14.13
2022-12-08T21:29:13.174Z,14.93
2022-12-08T21:31:40.680Z,13.63
2022-12-08T21:34:07.674Z,15.27
2022-12-08T21:36:34.579Z,16.52
2022-12-08T21:39:02.858Z,17.08
2022-12-08T21:41:49.044Z,13.60
2022-12-08T21:44:19.449Z,12.90
2022-12-08T21:46:46.876Z,13.60
2022-12-08T21:49:13.882Z,14.02
2022-12-08T21:51:42.393Z,14.02
2022-12-08T21:54:18.632Z,14.18
2022-12-08T21:56:47.343Z,14.32
2022-12-08T21:59:14.435Z,17.17
2022-12-08T22:01:43.485Z,15.77
2022-12-08T22:04:12.586Z,16.63
2022-12-08T22:06:39.632Z,14.90
2022-12-08T22:09:07.281Z,15.02
2022-12-08T22:11:34.422Z,15.68
2022-12-08T22:14:01.358Z,14.68
2022-12-08T22:16:28.560Z,16.90
2022-12-08T22:18:56.056Z,17.65
2022-12-08T22:21:23.061Z,15.10
2022-12-08T22:23:50.143Z,15.82
2022-12-08T22:26:17.044Z,13.90
2022-12-08T22:28:44.819Z,13.30
2022-12-08T22:31:14.765Z,13.95
2022-12-08T22:33:42.638Z,13.27
2022-12-08T22:36:24.527Z,13.50
2022-12-08T22:38:52.890Z,13.77
2022-12-08T22:41:20.928Z,13.30
2022-12-08T22:43:49.196Z,13.30
2022-12-08T22:46:19.306Z,12.70
2022-12-08T22:48:46.620Z,12.75
2022-12-08T22:51:14.792Z,13.70
2022-12-08T22:53:41.898Z,12.93
2022-12-08T22:56:10.617Z,12.95
2022-12-08T22:58:39.120Z,12.77
2022-12-08T23:01:06.687Z,12.88
2022-12-08T23:03:34.335Z,12.95
2022-12-08T23:06:02.160Z,12.25
2022-12-08T23:08:29.335Z,15.52
2022-12-08T23:10:56.474Z,12.43
2022-12-08T23:13:23.846Z,11.32
2022-12-08T23:15:50.834Z,13.07
2022-12-08T23:18:21.640Z,13.35
2022-12-08T23:20:48.649Z,12.15
2022-12-08T23:23:15.626Z,13.55
2022-12-08T23:25:43.878Z,13.45
2022-12-08T23:28:11.418Z,12.23
2022-12-08T23:30:41.911Z,13.05
2022-12-08T23:33:09.236Z,13.07
2022-12-08T23:35:36.342Z,13.60
2022-12-08T23:38:03.789Z,13.07
2022-12-08T23:40:30.954Z,14.55
2022-12-08T23:42:58.179Z,14.63
2022-12-08T23:45:25.177Z,13.52
2022-12-08T23:47:52.242Z,13.52
2022-12-08T23:50:19.230Z,13.20
2022-12-08T23:52:46.364Z,14.13
2022-12-08T23:55:13.538Z,13.63
2022-12-08T23:57:40.510Z,14.23
